Time;durP1;ratioP1;P1;durP2;ratioP2;P2;SDS_P1;SDS_P2;PMS_P1;PMS_P2;Temp;Humidity;BMP_temperature;BMP_pressure;BME280_temperature;BME280_humidity;BME280_pressure;Samples;Min_cycle;Max_cycle;Signal;HPM_P1;HPM_P2
2019/06/06 00:00:39;;;;;;;7.8;5.4;;;;;;;19.15;55.38379;927.8337;;;;
2019/06/06 00:03:03;;;;;;;10.1;5;;;;;;;19.26;56.14258;927.887;;;;
2019/06/06 00:05:34;;;;;;;6.4;4.7;;;;;;;18.98;56.3291;927.9523;;;;
2019/06/06 00:08:09;;;;;;;7.7;4.6;;;;;;;18.91;55.69141;927.9802;;;;
2019/06/06 00:10:37;;;;;;;9.1;4.7;;;;;;;19.25;52.34473;927.9964;;;;
2019/06/06 00:13:03;;;;;;;6.8;4.7;;;;;;;19.34;52.41406;927.7674;;;;
2019/06/06 00:15:33;;;;;;;8.2;4.6;;;;;;;19.42;53.16895;928.0008;;;;
2019/06/06 00:17:57;;;;;;;7;4.5;;;;;;;19.59;53.0498;928.059;;;;
2019/06/06 00:20:30;;;;;;;7;4.5;;;;;;;19.48;54.48047;928.0317;;;;
2019/06/06 00:22:50;;;;;;;7.2;4.5;;;;;;;19.21;53.87695;928.0613;;;;
2019/06/06 00:25:37;;;;;;;6.3;4.7;;;;;;;19.32;53.08691;928.0639;;;;
2019/06/06 00:27:56;;;;;;;7.6;4.9;;;;;;;19.32;54.625;928.0886;;;;
2019/06/06 00:30:24;;;;;;;5.8;4.3;;;;;;;19.29;54.62109;928.1577;;;;
2019/06/06 00:33:03;;;;;;;6.1;4.6;;;;;;;19.35;55.28027;928.123;;;;
2019/06/06 00:35:35;;;;;;;7.7;4.5;;;;;;;19.1;54.94629;928.1515;;;;
2019/06/06 00:38:02;;;;;;;5.5;4.3;;;;;;;19.06;55.43066;928.2434;;;;
2019/06/06 00:40:33;;;;;;;6.5;4.7;;;;;;;19.18;55.22363;928.1572;;;;
2019/06/06 00:43:05;;;;;;;8.5;4.6;;;;;;;18.9;55.78223;928.2831;;;;
2019/06/06 00:45:38;;;;;;;7.8;4.8;;;;;;;19.12;54.79785;928.3418;;;;
2019/06/06 00:48:20;;;;;;;6.1;4.8;;;;;;;19.01;55.95996;928.2756;;;;
2019/06/06 00:50:58;;;;;;;7.8;4.7;;;;;;;18.74;56.87891;928.3278;;;;
2019/06/06 00:53:40;;;;;;;8.8;4.6;;;;;;;18.57;58.04395;928.368;;;;
2019/06/06 00:56:13;;;;;;;7.6;5;;;;;;;18.47;58.99609;928.4725;;;;
2019/06/06 00:58:36;;;;;;;6.9;4.7;;;;;;;18.71;57.00293;928.4304;;;;
2019/06/06 01:01:19;;;;;;;8.3;4.6;;;;;;;18.83;56.11328;928.3655;;;;
2019/06/06 01:03:42;;;;;;;7;4.5;;;;;;;18.8;56.83984;928.4133;;;;
2019/06/06 01:06:07;;;;;;;6.1;4.5;;;;;;;18.39;57.39258;928.497;;;;
2019/06/06 01:08:38;;;;;;;6.9;4.7;;;;;;;18.78;55.84863;928.5625;;;;
2019/06/06 01:14:56;;;;;;;6.6;4.7;;;;;;;18.57;56.4502;928.5447;;;;
2019/06/06 01:17:26;;;;;;;6.4;5;;;;;;;18.7;55.67676;928.5695;;;;
2019/06/06 01:20:00;;;;;;;5.6;4.5;;;;;;;18.65;56.64746;928.5681;;;;
2019/06/06 01:22:34;;;;;;;5.7;4.7;;;;;;;18.78;55.69727;928.623;;;;
2019/06/06 01:25:06;;;;;;;9.8;5.1;;;;;;;18.83;55.9375;928.6415;;;;
2019/06/06 01:27:38;;;;;;;12.1;5.3;;;;;;;18.94;55.13672;928.639;;;;
2019/06/06 01:30:11;;;;;;;8.2;4.5;;;;;;;18.85;55.53223;928.6898;;;;
2019/06/06 01:32:45;;;;;;;7.1;5;;;;;;;18.95;53.46094;928.6884;;;;
2019/06/06 01:35:10;;;;;;;5.7;4.7;;;;;;;19;53.9209;928.6859;;;;
2019/06/06 01:37:40;;;;;;;6.8;4.7;;;;;;;19.15;55.7793;928.7506;;;;
2019/06/06 01:40:13;;;;;;;7;5.1;;;;;;;18.98;55.57129;928.8053;;;;
2019/06/06 01:42:48;;;;;;;6.6;4.8;;;;;;;18.84;56.21777;928.8508;;;;
2019/06/06 01:45:22;;;;;;;6.5;4.7;;;;;;;18.78;56.33789;928.8424;;;;
2019/06/06 01:47:53;;;;;;;8;5.4;;;;;;;18.35;56.87598;928.8842;;;;
2019/06/06 01:50:32;;;;;;;7;4.9;;;;;;;18.11;58.24902;928.8847;;;;
2019/06/06 01:53:01;;;;;;;6.6;4.4;;;;;;;17.77;57.61426;929.0161;;;;
2019/06/06 01:55:32;;;;;;;8.1;4.8;;;;;;;17.73;57.5166;929.0432;;;;
2019/06/06 01:58:15;;;;;;;7.6;4.4;;;;;;;18.17;57.3877;929.0684;;;;
2019/06/06 02:00:39;;;;;;;5.6;4.6;;;;;;;18.2;56.94922;929.0652;;;;
2019/06/06 02:03:11;;;;;;;6.2;4.7;;;;;;;18.23;56.96484;929.1297;;;;
2019/06/06 02:05:55;;;;;;;8.1;5.1;;;;;;;18.09;58.3418;929.0751;;;;
2019/06/06 02:08:45;;;;;;;12.7;5.7;;;;;;;18.03;58.0293;929.175;;;;
2019/06/06 02:11:10;;;;;;;10.3;4.8;;;;;;;18.12;57.52051;929.1701;;;;
2019/06/06 02:13:36;;;;;;;8.4;5;;;;;;;18.11;58.35352;929.1167;;;;
2019/06/06 02:16:12;;;;;;;6.7;4.8;;;;;;;18.16;58.25684;929.1182;;;;
2019/06/06 02:18:36;;;;;;;6.5;5;;;;;;;17.91;58.64258;929.1777;;;;
2019/06/06 02:21:11;;;;;;;6.3;4.8;;;;;;;18;58.51367;929.1789;;;;
2019/06/06 02:29:05;;;;;;;6.8;5;;;;;;;18.53;56.31836;929.2339;;;;
2019/06/06 02:31:34;;;;;;;7;4.9;;;;;;;18.35;56.83008;929.2375;;;;
2019/06/06 02:34:06;;;;;;;8.1;4.9;;;;;;;18.46;57.00488;929.3814;;;;
2019/06/06 02:36:37;;;;;;;7.1;4.8;;;;;;;18.22;57.17383;929.4144;;;;
2019/06/06 02:39:01;;;;;;;7.3;4.6;;;;;;;18.12;57.91504;929.532;;;;
2019/06/06 02:41:35;;;;;;;6.7;4.9;;;;;;;18.06;58.52246;929.5961;;;;
2019/06/06 02:43:58;;;;;;;7.1;5.6;;;;;;;18.03;58.25293;929.6638;;;;
2019/06/06 02:46:31;;;;;;;6.5;4.9;;;;;;;17.97;58.67383;929.6422;;;;
2019/06/06 02:49:00;;;;;;;6.7;5;;;;;;;17.76;59.25;929.6831;;;;
2019/06/06 02:51:37;;;;;;;9.8;5.6;;;;;;;17.41;60.4668;929.7134;;;;
2019/06/06 02:53:58;;;;;;;7.5;5.3;;;;;;;17.22;61.36816;929.8036;;;;
2019/06/06 02:56:23;;;;;;;8.9;6;;;;;;;17.31;62.25098;929.7695;;;;
2019/06/06 02:59:03;;;;;;;8.5;5.6;;;;;;;17.43;61.04785;929.8533;;;;
2019/06/06 03:01:39;;;;;;;7.8;5.8;;;;;;;17.11;61.6416;929.793;;;;
2019/06/06 03:04:38;;;;;;;7.9;5.8;;;;;;;16.84;62.87891;929.9097;;;;
2019/06/06 03:07:24;;;;;;;7.4;5.6;;;;;;;16.73;62.06348;929.8772;;;;
2019/06/06 03:09:58;;;;;;;6.6;4.7;;;;;;;16.87;61.6084;929.9095;;;;
2019/06/06 03:12:27;;;;;;;5.8;5.1;;;;;;;17.15;61.54395;929.9503;;;;
2019/06/06 03:14:54;;;;;;;7.2;5.3;;;;;;;17.16;61.17383;929.9442;;;;
2019/06/06 03:17:24;;;;;;;6.9;5.2;;;;;;;17.48;60.3125;930.0352;;;;
2019/06/06 03:20:04;;;;;;;6.5;5.1;;;;;;;17.44;59.82129;930.074;;;;
2019/06/06 03:22:32;;;;;;;16.8;5.4;;;;;;;17.37;60.22852;930.097;;;;
2019/06/06 03:25:06;;;;;;;8.4;5.2;;;;;;;17.38;60.20801;930.1425;;;;
2019/06/06 03:27:47;;;;;;;6.9;5.1;;;;;;;17.25;60.7334;930.2036;;;;
2019/06/06 03:30:18;;;;;;;6.8;4.7;;;;;;;17.51;59.49414;930.2193;;;;
2019/06/06 03:32:51;;;;;;;5.8;4.7;;;;;;;17.36;60.80762;930.205;;;;
2019/06/06 03:35:24;;;;;;;7.6;5.3;;;;;;;17.36;60.51758;930.2693;;;;
2019/06/06 03:37:50;;;;;;;7.7;5;;;;;;;17.21;60.78613;930.2767;;;;
2019/06/06 03:40:24;;;;;;;6.7;5.4;;;;;;;16.91;61.86816;930.342;;;;
2019/06/06 03:43:02;;;;;;;7.9;5.1;;;;;;;17.22;61.3916;930.3998;;;;
2019/06/06 03:45:36;;;;;;;6.6;5;;;;;;;16.84;61.9043;930.3906;;;;
2019/06/06 03:48:08;;;;;;;6.3;4.4;;;;;;;16.77;62.46289;930.4459;;;;
2019/06/06 03:50:45;;;;;;;5;4.4;;;;;;;17.25;61.41797;930.4819;;;;
2019/06/06 03:53:36;;;;;;;9.4;4.7;;;;;;;17.44;60.92188;930.5427;;;;
2019/06/06 03:56:05;;;;;;;7.7;4.3;;;;;;;17.75;60.6748;930.6863;;;;
2019/06/06 03:58:42;;;;;;;6.9;4.6;;;;;;;17.75;60.26855;930.7933;;;;
2019/06/06 04:02:39;;;;;;;8.4;4.9;;;;;;;17.57;61.18555;930.8422;;;;
2019/06/06 04:05:08;;;;;;;6.1;4.7;;;;;;;17.85;61.54785;930.9347;;;;
2019/06/06 04:07:44;;;;;;;6.7;4.7;;;;;;;17.6;62.74414;931.0441;;;;
2019/06/06 04:10:14;;;;;;;7.8;5;;;;;;;17.77;61.1416;931.0608;;;;
2019/06/06 04:12:41;;;;;;;7.5;4.4;;;;;;;17.17;62.63672;931.071;;;;
2019/06/06 04:15:09;;;;;;;9.8;5.3;;;;;;;17.4;62.83203;931.1567;;;;
2019/06/06 04:17:42;;;;;;;14.6;5.4;;;;;;;17.28;64.2168;931.2502;;;;
2019/06/06 04:20:19;;;;;;;13;7;;;;;;;17.42;63.25195;931.2916;;;;
2019/06/06 04:22:51;;;;;;;14.2;6.9;;;;;;;17.55;63.15234;931.3139;;;;
2019/06/06 04:25:29;;;;;;;13.9;8.5;;;;;;;17.63;63.91992;931.4447;;;;
2019/06/06 04:27:57;;;;;;;12.2;6.9;;;;;;;17.71;61.33203;931.507;;;;
2019/06/06 04:30:30;;;;;;;14;7.1;;;;;;;17.64;63.63086;931.5546;;;;
2019/06/06 04:33:00;;;;;;;15.1;9.6;;;;;;;17.86;62.98926;931.5563;;;;
2019/06/06 04:35:26;;;;;;;13.5;6.8;;;;;;;17.8;62.58691;931.5939;;;;
2019/06/06 04:37:58;;;;;;;14.6;7.5;;;;;;;18;63.04492;931.6397;;;;
2019/06/06 04:40:28;;;;;;;16.6;6.2;;;;;;;18.11;60.78223;931.6434;;;;
2019/06/06 04:43:14;;;;;;;11;6;;;;;;;18.03;62.43164;931.6241;;;;
2019/06/06 04:45:38;;;;;;;10.4;5.2;;;;;;;17.96;62.10938;931.7193;;;;
2019/06/06 04:48:05;;;;;;;11.1;6;;;;;;;18.16;62.58984;931.778;;;;
2019/06/06 04:50:34;;;;;;;9.5;5.6;;;;;;;18.09;63.87109;931.8259;;;;
2019/06/06 04:53:07;;;;;;;11.9;5.8;;;;;;;18.17;62.40723;931.8533;;;;
2019/06/06 04:55:47;;;;;;;13.3;6;;;;;;;18.25;62.70898;931.8859;;;;
2019/06/06 04:58:13;;;;;;;7.5;4.7;;;;;;;18.2;64.9668;931.9007;;;;
2019/06/06 05:00:45;;;;;;;8.9;4.7;;;;;;;18.48;66.22949;931.9373;;;;
2019/06/06 05:03:16;;;;;;;5;3.9;;;;;;;18.81;66.32617;931.9911;;;;
2019/06/06 05:05:39;;;;;;;11.7;3.4;;;;;;;19.41;63.91211;931.9895;;;;
2019/06/06 05:08:05;;;;;;;7.6;2.9;;;;;;;20.04;61.44727;931.8714;;;;
2019/06/06 05:10:32;;;;;;;8.1;3.4;;;;;;;20.43;59.94727;931.9547;;;;
2019/06/06 05:13:00;;;;;;;7.6;2.9;;;;;;;20.48;59.65137;931.934;;;;
2019/06/06 05:15:29;;;;;;;6.5;2.8;;;;;;;20.69;59.63281;931.9989;;;;
2019/06/06 05:18:01;;;;;;;7.3;2.7;;;;;;;21.33;57.41309;931.9797;;;;
2019/06/06 05:20:38;;;;;;;5.5;2.7;;;;;;;21.69;56.39355;932.0475;;;;
2019/06/06 05:23:08;;;;;;;5;2.4;;;;;;;22;55.11914;932.1317;;;;
2019/06/06 05:25:37;;;;;;;7.4;2.4;;;;;;;22.52;53.94141;932.2737;;;;
2019/06/06 05:28:06;;;;;;;7.1;2.6;;;;;;;22.99;52.35352;932.2772;;;;
2019/06/06 05:30:32;;;;;;;12.2;2.5;;;;;;;23.48;52.10449;932.3491;;;;
2019/06/06 05:33:00;;;;;;;5.1;2.3;;;;;;;23.9;49.73047;932.3569;;;;
2019/06/06 05:35:35;;;;;;;5.9;2.4;;;;;;;24.45;48.68359;932.2797;;;;
2019/06/06 05:38:08;;;;;;;6.7;2.4;;;;;;;24.33;48.6709;932.3719;;;;
2019/06/06 05:40:45;;;;;;;4.5;2.4;;;;;;;23.77;50.85645;932.3692;;;;
2019/06/06 05:43:14;;;;;;;6.6;2.8;;;;;;;23.41;51.94434;932.4246;;;;
2019/06/06 05:45:41;;;;;;;6.8;2.7;;;;;;;22.76;51.69238;932.3677;;;;
2019/06/06 05:48:09;;;;;;;9.7;2.8;;;;;;;22.88;52.29492;932.4275;;;;
2019/06/06 05:50:35;;;;;;;6.1;2.4;;;;;;;22.74;52.72266;932.4881;;;;
2019/06/06 05:53:04;;;;;;;5.9;2.7;;;;;;;22.57;52.4209;932.4835;;;;
2019/06/06 05:55:33;;;;;;;7;2.6;;;;;;;22.06;53.86133;932.5084;;;;
2019/06/06 05:58:05;;;;;;;6.5;2.7;;;;;;;22;54.60352;932.5508;;;;
2019/06/06 06:00:33;;;;;;;4.1;2.7;;;;;;;21.39;56.09863;932.5189;;;;
2019/06/06 06:03:00;;;;;;;7.4;2.7;;;;;;;21.29;55.875;932.5217;;;;
2019/06/06 06:05:29;;;;;;;6.6;2.6;;;;;;;21.37;55.04297;932.6688;;;;
2019/06/06 06:08:10;;;;;;;8.2;2.6;;;;;;;21.5;55.33887;932.677;;;;
2019/06/06 06:10:39;;;;;;;5.8;2.6;;;;;;;21.53;54.27832;932.6415;;;;
2019/06/06 06:13:06;;;;;;;6.4;2.7;;;;;;;21.52;55.19043;932.7683;;;;
2019/06/06 06:15:58;;;;;;;7.6;2.6;;;;;;;21.37;55.62695;932.7127;;;;
2019/06/06 06:18:22;;;;;;;7.1;2.4;;;;;;;21.12;55.78418;932.7441;;;;
2019/06/06 06:24:15;;;;;;;4.9;2.7;;;;;;;21.14;56.44141;932.7497;;;;
2019/06/06 06:26:40;;;;;;;5.4;2.6;;;;;;;21.16;56.11523;932.8342;;;;
2019/06/06 06:29:22;;;;;;;9.5;2.5;;;;;;;21.19;55.4873;932.7988;;;;
2019/06/06 06:31:53;;;;;;;5;2.3;;;;;;;21.39;55.67676;932.8441;;;;
2019/06/06 06:34:21;;;;;;;6;2.4;;;;;;;21.34;56.23242;932.7729;;;;
2019/06/06 06:36:54;;;;;;;7.7;2.7;;;;;;;21.08;57.12305;932.8105;;;;
2019/06/06 06:39:34;;;;;;;6.2;2.6;;;;;;;20.96;56.91992;932.8279;;;;
2019/06/06 06:42:06;;;;;;;4.5;2.5;;;;;;;20.94;57.37402;932.8571;;;;
2019/06/06 06:44:36;;;;;;;6.7;2.5;;;;;;;20.62;58.18555;932.9197;;;;
2019/06/06 06:47:14;;;;;;;5;2.6;;;;;;;20.63;58.87695;932.8661;;;;
2019/06/06 06:49:34;;;;;;;7.3;2.8;;;;;;;20.56;58.56348;932.8846;;;;
2019/06/06 06:52:19;;;;;;;4.7;2.6;;;;;;;20.43;59.43262;932.9172;;;;
2019/06/06 06:54:50;;;;;;;6.7;2.6;;;;;;;20.43;58.55762;932.9252;;;;
2019/06/06 06:57:24;;;;;;;6.4;2.7;;;;;;;20.41;58.96289;933.0018;;;;
2019/06/06 07:00:10;;;;;;;7.2;2.8;;;;;;;20.42;58.07813;932.9479;;;;
2019/06/06 07:02:35;;;;;;;3.8;2.5;;;;;;;20.43;58.48926;932.955;;;;
2019/06/06 07:05:09;;;;;;;6.2;2.4;;;;;;;20.31;59.37109;933.0197;;;;
2019/06/06 07:07:32;;;;;;;5.5;2.4;;;;;;;20.32;58.46191;933.0304;;;;
2019/06/06 07:10:02;;;;;;;4.7;2.7;;;;;;;20.25;58.83594;933.0244;;;;
2019/06/06 07:12:34;;;;;;;3.8;2.2;;;;;;;20.3;58.16602;933.0944;;;;
2019/06/06 07:14:58;;;;;;;4.4;2.2;;;;;;;20.19;57.60352;933.0884;;;;
2019/06/06 07:17:40;;;;;;;5.1;2.2;;;;;;;20.14;57.40918;933.1905;;;;
2019/06/06 07:20:04;;;;;;;4.4;2.1;;;;;;;20.05;57.25879;933.1894;;;;
2019/06/06 07:22:45;;;;;;;8.6;2;;;;;;;20.14;56.65234;933.2282;;;;
2019/06/06 07:25:19;;;;;;;5.8;2.1;;;;;;;20.25;56.37402;933.1487;;;;
2019/06/06 07:27:51;;;;;;;3.4;2;;;;;;;20.2;56.26367;933.1768;;;;
2019/06/06 07:30:32;;;;;;;3.7;2;;;;;;;20.08;57.18066;933.225;;;;
2019/06/06 07:33:04;;;;;;;3.8;2.1;;;;;;;20.22;56.54492;933.1786;;;;
2019/06/06 07:35:34;;;;;;;3.6;2;;;;;;;20.06;57.46973;933.2103;;;;
2019/06/06 07:37:59;;;;;;;8.9;2.2;;;;;;;20.04;56.58105;933.264;;;;
2019/06/06 07:40:26;;;;;;;8.7;2.3;;;;;;;19.89;57.05078;933.2037;;;;
2019/06/06 07:43:04;;;;;;;4.6;2.3;;;;;;;19.83;58.14063;933.2162;;;;
2019/06/06 07:45:32;;;;;;;4.7;2;;;;;;;19.94;57.03418;933.2272;;;;
2019/06/06 07:48:04;;;;;;;9.4;2.3;;;;;;;19.83;57.21777;933.2899;;;;
2019/06/06 07:50:32;;;;;;;3.2;2.3;;;;;;;19.79;57.83105;933.3675;;;;
2019/06/06 07:52:58;;;;;;;6.2;2.4;;;;;;;19.7;57.83105;933.3544;;;;
2019/06/06 07:55:30;;;;;;;6.5;2.3;;;;;;;19.79;58.36816;933.4152;;;;
2019/06/06 07:57:56;;;;;;;4.1;2.3;;;;;;;19.82;58.05664;933.3423;;;;
2019/06/06 08:00:27;;;;;;;3.9;2.3;;;;;;;19.67;59.01563;933.3895;;;;
2019/06/06 08:02:50;;;;;;;4.4;2.4;;;;;;;19.79;58.8457;933.4371;;;;
2019/06/06 08:05:18;;;;;;;5.3;2.5;;;;;;;19.71;58.84668;933.4697;;;;
2019/06/06 08:07:50;;;;;;;3.7;2.3;;;;;;;19.64;59.4668;933.4067;;;;
2019/06/06 08:10:29;;;;;;;4.2;2.6;;;;;;;19.63;59.13867;933.4803;;;;
2019/06/06 08:12:57;;;;;;;3.5;2.4;;;;;;;19.5;60.20605;933.5325;;;;
2019/06/06 08:15:28;;;;;;;5.9;2.4;;;;;;;19.49;59.63281;933.5734;;;;
2019/06/06 08:18:04;;;;;;;6.6;2.3;;;;;;;19.5;59.82129;933.628;;;;
2019/06/06 08:20:38;;;;;;;7.6;2.6;;;;;;;19.46;59.02246;933.5467;;;;
2019/06/06 08:23:04;;;;;;;4;2.2;;;;;;;19.47;59.28125;933.653;;;;
2019/06/06 08:25:34;;;;;;;5.1;2.4;;;;;;;19.51;59.41504;933.6476;;;;
2019/06/06 08:28:08;;;;;;;5.4;2.4;;;;;;;19.43;59.46289;933.6492;;;;
2019/06/06 08:30:38;;;;;;;5.6;2.3;;;;;;;19.29;59.25781;933.6689;;;;
2019/06/06 08:33:04;;;;;;;3.4;2.2;;;;;;;19.3;59.0127;933.7067;;;;
2019/06/06 08:35:38;;;;;;;5.2;2.1;;;;;;;19.38;59.25781;933.8114;;;;
2019/06/06 08:38:11;;;;;;;4.7;2.5;;;;;;;19.23;59.71582;933.8144;;;;
2019/06/06 08:40:39;;;;;;;3.4;2.2;;;;;;;19.18;59.64941;933.8522;;;;
2019/06/06 08:43:10;;;;;;;3.7;2.3;;;;;;;19.03;60.45605;933.8461;;;;
2019/06/06 08:45:35;;;;;;;3.7;2.3;;;;;;;19.15;60.42578;933.8901;;;;
2019/06/06 08:48:02;;;;;;;5;2.5;;;;;;;19.11;60.47754;934.0036;;;;
2019/06/06 08:50:30;;;;;;;5;2.4;;;;;;;19.19;60.1748;933.9972;;;;
2019/06/06 08:52:56;;;;;;;4.2;2.5;;;;;;;19.28;60.2334;934.0148;;;;
2019/06/06 08:55:26;;;;;;;5.2;2.5;;;;;;;19.33;59.74023;933.9777;;;;
2019/06/06 08:57:52;;;;;;;4.7;2.3;;;;;;;19.39;59.69043;933.9524;;;;
2019/06/06 09:00:18;;;;;;;7.6;2.7;;;;;;;19.44;59.61621;933.9583;;;;
2019/06/06 09:02:48;;;;;;;6.7;2.6;;;;;;;19.34;60.66309;933.9548;;;;
2019/06/06 09:05:18;;;;;;;4.6;2.3;;;;;;;19.43;59.97559;933.9077;;;;
2019/06/06 09:07:42;;;;;;;6;2.5;;;;;;;19.53;59.83691;933.9417;;;;
2019/06/06 09:10:17;;;;;;;5;2.4;;;;;;;19.43;59.88281;934.024;;;;
2019/06/06 09:12:49;;;;;;;8.3;2.6;;;;;;;19.41;59.66895;934.1133;;;;
2019/06/06 09:15:22;;;;;;;4.5;2.6;;;;;;;19.4;59.86621;934.149;;;;
2019/06/06 09:17:50;;;;;;;3.8;2.3;;;;;;;19.43;59.6377;934.179;;;;
2019/06/06 09:20:17;;;;;;;4.4;2.5;;;;;;;19.41;59.4375;934.134;;;;
2019/06/06 09:22:51;;;;;;;5.2;2.5;;;;;;;19.39;60.15723;934.1541;;;;
2019/06/06 09:25:24;;;;;;;7.6;2.5;;;;;;;19.12;60.58496;934.1565;;;;
2019/06/06 09:27:52;;;;;;;5.7;2.9;;;;;;;19.23;61.00879;934.2019;;;;
2019/06/06 09:30:24;;;;;;;4.7;2.5;;;;;;;19.37;60.91113;934.2349;;;;
2019/06/06 09:32:56;;;;;;;5;2.2;;;;;;;19.33;60.78809;934.2231;;;;
2019/06/06 09:35:28;;;;;;;5.4;2.6;;;;;;;19.35;61.03516;934.212;;;;
2019/06/06 09:37:55;;;;;;;4.5;2.6;;;;;;;19.53;60.1875;934.2042;;;;
2019/06/06 09:40:26;;;;;;;3.7;2.5;;;;;;;19.45;61.02734;934.2366;;;;
2019/06/06 09:42:56;;;;;;;5.1;2.8;;;;;;;18.99;61.10156;934.2255;;;;
2019/06/06 09:45:32;;;;;;;5.2;2.4;;;;;;;19.13;61.11035;934.2678;;;;
2019/06/06 09:48:06;;;;;;;5.3;2.5;;;;;;;19.19;60.70996;934.2555;;;;
2019/06/06 09:50:38;;;;;;;6.5;3;;;;;;;19.21;61.23828;934.2822;;;;
2019/06/06 09:53:08;;;;;;;4.3;2.3;;;;;;;19.29;61.08594;934.2631;;;;
2019/06/06 09:55:44;;;;;;;5.9;2.6;;;;;;;19.42;60.20703;934.3182;;;;
2019/06/06 09:58:23;;;;;;;5.3;2.5;;;;;;;19.34;59.125;934.2906;;;;
2019/06/06 10:00:52;;;;;;;6.1;2.3;;;;;;;19.51;59.03027;934.3792;;;;
2019/06/06 10:03:23;;;;;;;4.3;2.3;;;;;;;19.4;59.61035;934.3946;;;;
2019/06/06 10:05:53;;;;;;;3.9;2.3;;;;;;;19.22;59.00293;934.3805;;;;
2019/06/06 10:08:19;;;;;;;3.1;2.1;;;;;;;19.38;58.27832;934.4146;;;;
2019/06/06 10:10:52;;;;;;;4.4;2.2;;;;;;;19.1;59.2666;934.4089;;;;
2019/06/06 10:13:27;;;;;;;6;2.2;;;;;;;19.1;59.10254;934.405;;;;
2019/06/06 10:16:05;;;;;;;3.2;2.5;;;;;;;19.1;59.41797;934.4128;;;;
2019/06/06 10:18:31;;;;;;;4.6;2.4;;;;;;;19.13;59.13086;934.3789;;;;
2019/06/06 10:21:01;;;;;;;5.3;2.4;;;;;;;19.08;59.11328;934.4458;;;;
2019/06/06 10:23:38;;;;;;;5.1;2.1;;;;;;;18.92;59.88184;934.4592;;;;
2019/06/06 10:26:09;;;;;;;5.5;2.2;;;;;;;19.02;59.4541;934.4885;;;;
2019/06/06 10:28:42;;;;;;;4.6;2.4;;;;;;;18.76;59.80273;934.527;;;;
2019/06/06 10:31:07;;;;;;;3.1;1.9;;;;;;;18.82;59.35742;934.4894;;;;
2019/06/06 10:33:34;;;;;;;5.3;2.3;;;;;;;19.03;59.52539;934.4878;;;;
2019/06/06 10:36:03;;;;;;;5.9;2.1;;;;;;;19.18;59.32422;934.4969;;;;
2019/06/06 10:38:33;;;;;;;4.2;2.3;;;;;;;19.31;58.73535;934.4667;;;;
2019/06/06 10:40:56;;;;;;;3.4;2.4;;;;;;;19.18;59.92871;934.5754;;;;
2019/06/06 10:43:29;;;;;;;3.5;2.3;;;;;;;19.3;60.00293;934.6149;;;;
2019/06/06 10:45:53;;;;;;;8.8;2.7;;;;;;;19.23;60.02832;934.5775;;;;
2019/06/06 10:48:31;;;;;;;6;2.7;;;;;;;19.32;60.30957;934.5342;;;;
2019/06/06 10:51:06;;;;;;;3;2.3;;;;;;;19.28;59.93164;934.5394;;;;
2019/06/06 10:53:33;;;;;;;5.7;2.5;;;;;;;19.42;59.64746;934.521;;;;
2019/06/06 10:56:00;;;;;;;5.1;2.4;;;;;;;19.44;59.5918;934.5616;;;;
2019/06/06 10:58:27;;;;;;;4.3;2.4;;;;;;;19.22;60.14453;934.496;;;;
2019/06/06 11:01:01;;;;;;;7.1;2.3;;;;;;;19.22;59.7832;934.5219;;;;
2019/06/06 11:03:25;;;;;;;4.4;2.5;;;;;;;19.3;59.56055;934.5761;;;;
2019/06/06 11:05:53;;;;;;;5.1;2.5;;;;;;;19.33;59.61035;934.5898;;;;
2019/06/06 11:08:16;;;;;;;4.8;2.6;;;;;;;19.5;58.57422;934.5572;;;;
2019/06/06 11:10:45;;;;;;;3.6;2.7;;;;;;;19.73;57.625;934.5314;;;;
2019/06/06 11:13:21;;;;;;;4.1;2.6;;;;;;;19.61;59.43945;934.5519;;;;
2019/06/06 11:15:50;;;;;;;7.5;2.9;;;;;;;19.79;59.11328;934.5708;;;;
2019/06/06 11:18:22;;;;;;;5.1;3.6;;;;;;;19.81;58.60352;934.6064;;;;
2019/06/06 11:20:59;;;;;;;6.1;2.7;;;;;;;19.58;59.51758;934.5511;;;;
2019/06/06 11:23:25;;;;;;;5.8;3;;;;;;;19.81;58.56836;934.5458;;;;
2019/06/06 11:25:51;;;;;;;7.4;2.8;;;;;;;19.86;58.38867;934.5089;;;;
2019/06/06 11:28:24;;;;;;;7;2.8;;;;;;;19.9;58.04492;934.4688;;;;
2019/06/06 11:30:57;;;;;;;3.9;2.6;;;;;;;19.96;57.55078;934.4344;;;;
2019/06/06 11:33:31;;;;;;;6.8;2.8;;;;;;;20.03;58.30664;934.4341;;;;
2019/06/06 11:36:01;;;;;;;8.1;2.9;;;;;;;20.04;59.10059;934.4719;;;;
2019/06/06 11:38:34;;;;;;;5.5;2.5;;;;;;;20.19;58.07031;934.6099;;;;
2019/06/06 11:41:08;;;;;;;4.2;2.7;;;;;;;20.13;57.28125;934.6403;;;;
2019/06/06 11:43:33;;;;;;;4.6;3;;;;;;;20.22;57.875;934.6624;;;;
2019/06/06 11:46:05;;;;;;;5.1;3.1;;;;;;;20.08;58.6875;934.6208;;;;
2019/06/06 11:48:34;;;;;;;4.4;3;;;;;;;20.02;58.52734;934.6163;;;;
2019/06/06 11:51:10;;;;;;;7.2;3.2;;;;;;;20.3;57.88574;934.5653;;;;
2019/06/06 11:53:49;;;;;;;4.2;3;;;;;;;20.27;57.3457;934.5438;;;;
2019/06/06 11:56:36;;;;;;;5.7;3.1;;;;;;;20.29;57.6748;934.5833;;;;
2019/06/06 11:59:04;;;;;;;6.5;3;;;;;;;20.3;58.16699;934.5215;;;;
2019/06/06 12:01:29;;;;;;;5.7;3.1;;;;;;;20.29;57.80273;934.6013;;;;
2019/06/06 12:04:02;;;;;;;5.9;3.2;;;;;;;20.25;57.97266;934.5639;;;;
2019/06/06 12:06:26;;;;;;;5.3;3;;;;;;;20.15;57.68066;934.5814;;;;
2019/06/06 12:08:57;;;;;;;5.1;2.7;;;;;;;20.13;57.4668;934.6362;;;;
2019/06/06 12:11:23;;;;;;;4;2.9;;;;;;;20.34;57.0625;934.6365;;;;
2019/06/06 12:13:51;;;;;;;6.4;3.2;;;;;;;20.33;57.64551;934.6128;;;;
2019/06/06 12:16:18;;;;;;;7.3;3.6;;;;;;;20.24;56.65332;934.6943;;;;
2019/06/06 12:18:49;;;;;;;7.7;3.5;;;;;;;20.35;57.55566;934.6694;;;;
2019/06/06 12:21:21;;;;;;;6.3;3.2;;;;;;;20.2;58.58594;934.6644;;;;
2019/06/06 12:23:47;;;;;;;7.2;3.1;;;;;;;20.23;58.41504;934.6267;;;;
2019/06/06 12:26:36;;;;;;;5.3;3.2;;;;;;;20.18;58.4541;934.6547;;;;
2019/06/06 12:29:08;;;;;;;5.2;3.4;;;;;;;20.03;59.01855;934.6192;;;;
2019/06/06 12:31:32;;;;;;;6.4;3.3;;;;;;;20.08;58.76758;934.6387;;;;
2019/06/06 12:34:00;;;;;;;7;3.4;;;;;;;20.19;58.38574;934.6149;;;;
2019/06/06 12:36:34;;;;;;;7.2;3.1;;;;;;;20.24;58.66113;934.6127;;;;
2019/06/06 12:39:05;;;;;;;4.8;3.4;;;;;;;19.99;58.41895;934.6242;;;;
2019/06/06 12:41:33;;;;;;;6.5;3.3;;;;;;;20.02;59.24902;934.5952;;;;
2019/06/06 12:44:11;;;;;;;7.2;3.5;;;;;;;20.15;58.66113;934.5723;;;;
2019/06/06 12:46:40;;;;;;;5.9;3.3;;;;;;;20.25;58.8125;934.5897;;;;
2019/06/06 12:49:06;;;;;;;5;3.1;;;;;;;20.27;58.20898;934.5826;;;;
2019/06/06 12:51:40;;;;;;;7.2;3.4;;;;;;;20.29;58.11816;934.6222;;;;
2019/06/06 12:54:08;;;;;;;4.2;3.3;;;;;;;19.96;59.38184;934.5895;;;;
2019/06/06 12:56:34;;;;;;;7;3.4;;;;;;;19.88;59.98926;934.5405;;;;
2019/06/06 12:59:00;;;;;;;5.2;3.5;;;;;;;20.1;59.24902;934.5112;;;;
2019/06/06 13:01:32;;;;;;;5.6;3.6;;;;;;;20.2;58.52734;934.4963;;;;
2019/06/06 13:04:04;;;;;;;5.7;3.3;;;;;;;20.24;58.54395;934.4227;;;;
2019/06/06 13:06:35;;;;;;;6.2;3.2;;;;;;;20.36;58.4209;934.4483;;;;
2019/06/06 13:09:07;;;;;;;6.3;3.6;;;;;;;20.26;58.44238;934.3845;;;;
2019/06/06 13:11:41;;;;;;;5.8;3.9;;;;;;;20.38;58.9707;934.4551;;;;
2019/06/06 13:14:14;;;;;;;5.8;3.9;;;;;;;20.41;58.82422;934.3814;;;;
2019/06/06 13:16:41;;;;;;;4.9;3.8;;;;;;;20.39;58.16797;934.4012;;;;
2019/06/06 13:19:06;;;;;;;7.2;3.5;;;;;;;20.33;57.61035;934.4188;;;;
2019/06/06 13:21:45;;;;;;;5.1;3.4;;;;;;;20.22;58.54102;934.4205;;;;
2019/06/06 13:24:12;;;;;;;6;3.5;;;;;;;20.34;58.42871;934.3828;;;;
2019/06/06 13:26:56;;;;;;;5.4;3.4;;;;;;;20.38;58.22461;934.454;;;;
2019/06/06 13:29:40;;;;;;;6.9;3.8;;;;;;;20.27;58.52441;934.4442;;;;
2019/06/06 13:32:12;;;;;;;7;4.1;;;;;;;20.23;58.58984;934.4844;;;;
2019/06/06 13:34:42;;;;;;;6.2;4.1;;;;;;;20.33;57.69238;934.4317;;;;
2019/06/06 13:37:08;;;;;;;4.2;3.8;;;;;;;20.03;58.52832;934.46;;;;
2019/06/06 13:39:38;;;;;;;7.3;3.8;;;;;;;19.91;60.0752;934.4766;;;;
2019/06/06 13:42:05;;;;;;;8.7;3.9;;;;;;;19.88;59.7793;934.4411;;;;
2019/06/06 13:44:37;;;;;;;7.2;4;;;;;;;19.91;59.93457;934.4289;;;;
2019/06/06 13:47:07;;;;;;;7.3;4.1;;;;;;;20.11;58.98242;934.4095;;;;
2019/06/06 13:49:32;;;;;;;7.5;3.9;;;;;;;20;59.72559;934.4769;;;;
2019/06/06 13:52:01;;;;;;;7.8;4.1;;;;;;;19.94;60.79004;934.4684;;;;
2019/06/06 13:54:27;;;;;;;10;4.2;;;;;;;19.9;61.11328;934.5592;;;;
2019/06/06 13:56:58;;;;;;;7.9;4.3;;;;;;;19.67;62.05859;934.6174;;;;
2019/06/06 13:59:22;;;;;;;9.5;4.3;;;;;;;19.65;61.6377;934.6752;;;;
2019/06/06 14:01:52;;;;;;;7.2;4.6;;;;;;;19.51;61.84961;934.6775;;;;
2019/06/06 14:04:24;;;;;;;8.6;4.3;;;;;;;19.67;61.38281;934.7725;;;;
2019/06/06 14:06:50;;;;;;;6.1;4.4;;;;;;;19.71;61.26074;934.8011;;;;
2019/06/06 14:09:31;;;;;;;5.8;4.1;;;;;;;19.88;60.74805;934.8508;;;;
2019/06/06 14:11:56;;;;;;;6.7;4.7;;;;;;;19.82;61.54492;934.8331;;;;
2019/06/06 14:14:24;;;;;;;6.4;4.4;;;;;;;19.74;60.28516;934.8356;;;;
2019/06/06 14:16:58;;;;;;;8.4;5;;;;;;;19.67;62.08301;934.8024;;;;
2019/06/06 14:19:31;;;;;;;6.3;4.3;;;;;;;19.72;61.14648;934.782;;;;
2019/06/06 14:21:56;;;;;;;10.4;4.6;;;;;;;19.86;61.65332;934.7853;;;;
2019/06/06 14:24:26;;;;;;;7.3;4.3;;;;;;;20.07;60.83203;934.791;;;;
2019/06/06 14:27:20;;;;;;;6.4;4.6;;;;;;;20.06;60.34082;934.8179;;;;
2019/06/06 14:29:57;;;;;;;6.9;4.6;;;;;;;19.95;60.4541;934.8543;;;;
2019/06/06 14:32:27;;;;;;;9.3;4.5;;;;;;;19.8;60.85352;934.8194;;;;
2019/06/06 14:34:52;;;;;;;7.5;4.8;;;;;;;19.45;62.08789;934.805;;;;
2019/06/06 14:37:35;;;;;;;6.5;5.1;;;;;;;19.58;62.22168;934.7321;;;;
2019/06/06 14:40:07;;;;;;;9.7;5;;;;;;;19.67;61.97852;934.7506;;;;
2019/06/06 14:42:41;;;;;;;6.2;5;;;;;;;19.43;62.04883;934.8599;;;;
2019/06/06 14:45:15;;;;;;;6.7;4.9;;;;;;;19.32;62.86035;934.7756;;;;
2019/06/06 14:47:46;;;;;;;8.3;4.9;;;;;;;19.23;62.90625;934.7921;;;;
2019/06/06 14:50:18;;;;;;;6.8;4.7;;;;;;;19.49;60.72754;934.8137;;;;
2019/06/06 14:52:51;;;;;;;7.9;4.9;;;;;;;19.49;62.08008;934.8267;;;;
2019/06/06 14:55:22;;;;;;;6.4;5;;;;;;;19.36;62.95898;934.8053;;;;
2019/06/06 14:57:54;;;;;;;7.2;5.4;;;;;;;19.34;62.82813;934.877;;;;
2019/06/06 15:00:28;;;;;;;9.3;5.1;;;;;;;19.51;61.79199;934.9568;;;;
2019/06/06 15:03:04;;;;;;;7.7;5.1;;;;;;;19.49;61.68457;934.9897;;;;